Time;durP1;ratioP1;P1;durP2;ratioP2;P2;SDS_P1;SDS_P2;PMS_P1;PMS_P2;Temp;Humidity;BMP_temperature;BMP_pressure;BME280_temperature;BME280_humidity;BME280_pressure;Samples;Min_cycle;Max_cycle;Signal;HPM_P1;HPM_P2
2022/12/31 00:00:16;;;;;;;0.20;0.10;;;12.10;99.90;;;;;;5055960;28;20443;-73
2022/12/31 00:02:43;;;;;;;0.10;0.10;;;12.20;99.90;;;;;;5052505;28;20475;-73
2022/12/31 00:05:10;;;;;;;0.10;0.10;;;12.20;99.90;;;;;;5059940;28;20431;-73
2022/12/31 00:07:37;;;;;;;0.00;0.00;;;12.20;99.90;;;;;;5049991;28;20513;-73
2022/12/31 00:10:06;;;;;;;0.10;0.10;;;12.20;99.90;;;;;;5047993;28;20414;-72
2022/12/31 00:12:33;;;;;;;0.10;0.10;;;12.30;99.90;;;;;;5060216;28;20431;-72
2022/12/31 00:14:59;;;;;;;0.10;0.10;;;12.30;99.90;;;;;;5059982;28;20432;-72
2022/12/31 00:17:26;;;;;;;0.20;0.20;;;12.40;99.90;;;;;;5052791;28;20502;-72
2022/12/31 00:19:53;;;;;;;0.10;0.10;;;12.40;99.90;;;;;;5052486;28;20929;-73
2022/12/31 00:22:21;;;;;;;0.10;0.10;;;12.40;99.90;;;;;;5045575;28;20437;-75
2022/12/31 00:24:48;;;;;;;0.10;0.10;;;12.40;99.90;;;;;;5049736;28;20430;-73
2022/12/31 00:27:15;;;;;;;0.30;0.30;;;12.40;99.90;;;;;;5070076;28;20451;-73
2022/12/31 00:29:42;;;;;;;0.10;0.10;;;12.40;99.90;;;;;;5061202;28;21334;-73
2022/12/31 00:32:11;;;;;;;0.10;0.10;;;12.40;99.90;;;;;;5058577;28;20894;-73
2022/12/31 00:34:37;;;;;;;0.30;0.20;;;12.40;99.90;;;;;;5058508;28;20826;-73
2022/12/31 00:37:04;;;;;;;0.10;0.10;;;12.40;99.90;;;;;;5066364;28;20501;-73
2022/12/31 00:39:31;;;;;;;0.10;0.10;;;12.40;99.90;;;;;;5044106;28;20450;-73
2022/12/31 00:41:58;;;;;;;0.10;0.10;;;12.50;99.90;;;;;;5056995;28;20454;-72
2022/12/31 00:44:27;;;;;;;0.10;0.10;;;12.50;99.90;;;;;;5063321;28;20527;-73
2022/12/31 00:46:54;;;;;;;0.17;0.17;;;12.50;99.90;;;;;;5061132;28;20427;-72
2022/12/31 00:49:21;;;;;;;0.15;0.15;;;12.50;99.90;;;;;;5052950;28;20429;-73
2022/12/31 00:51:50;;;;;;;0.30;0.20;;;12.50;99.90;;;;;;5062520;28;20485;-72
2022/12/31 00:54:16;;;;;;;0.10;0.10;;;12.50;99.90;;;;;;5060964;28;20441;-73
2022/12/31 00:56:43;;;;;;;0.10;0.10;;;12.60;99.90;;;;;;5060085;28;20435;-73
2022/12/31 00:59:10;;;;;;;0.20;0.20;;;12.70;99.90;;;;;;5064659;28;20431;-73
2022/12/31 01:01:38;;;;;;;0.10;0.10;;;12.60;99.90;;;;;;5039362;28;21184;-73
2022/12/31 01:04:08;;;;;;;0.20;0.20;;;12.60;99.90;;;;;;5057906;28;20489;-73
2022/12/31 01:06:39;;;;;;;0.10;0.10;;;12.60;99.90;;;;;;5040117;28;20947;-73
2022/12/31 01:09:07;;;;;;;0.10;0.10;;;12.60;99.90;;;;;;5066431;28;20427;-73
2022/12/31 01:11:36;;;;;;;0.10;0.10;;;12.60;99.90;;;;;;5063923;28;20849;-73
2022/12/31 01:14:04;;;;;;;0.10;0.10;;;12.50;99.90;;;;;;5056402;28;20477;-73
2022/12/31 01:16:36;;;;;;;0.00;0.00;;;12.60;99.90;;;;;;5053432;28;20436;-73
2022/12/31 01:19:07;;;;;;;0.10;0.10;;;12.60;99.90;;;;;;5061150;28;20433;-73
2022/12/31 01:21:40;;;;;;;0.10;0.10;;;12.60;99.90;;;;;;5055482;28;20438;-74
2022/12/31 01:24:08;;;;;;;0.17;0.17;;;12.50;99.90;;;;;;5066718;28;20794;-74
2022/12/31 01:26:35;;;;;;;0.10;0.10;;;12.60;99.90;;;;;;5058082;28;20451;-73
2022/12/31 01:29:08;;;;;;;0.10;0.10;;;12.60;99.90;;;;;;5067470;28;20790;-73
2022/12/31 01:31:36;;;;;;;0.17;0.17;;;12.60;99.90;;;;;;5038790;28;20440;-72
2022/12/31 01:34:06;;;;;;;0.00;0.00;;;12.60;99.90;;;;;;5057262;28;20461;-73
2022/12/31 01:36:34;;;;;;;0.10;0.10;;;12.60;99.90;;;;;;5060323;28;20455;-73
2022/12/31 01:39:04;;;;;;;0.10;0.10;;;12.60;99.90;;;;;;5050634;28;20429;-74
2022/12/31 01:41:35;;;;;;;0.08;0.08;;;12.70;99.90;;;;;;5059129;28;20437;-73
2022/12/31 01:44:10;;;;;;;0.20;0.20;;;12.70;99.90;;;;;;5063211;28;20430;-73
2022/12/31 01:46:39;;;;;;;0.10;0.10;;;12.70;99.90;;;;;;5053592;28;20498;-73
2022/12/31 01:49:15;;;;;;;0.30;0.30;;;12.70;99.90;;;;;;5062525;28;20424;-72
2022/12/31 01:51:47;;;;;;;0.30;0.20;;;12.70;99.90;;;;;;5044983;28;20799;-73
2022/12/31 01:54:17;;;;;;;0.00;0.00;;;12.70;99.90;;;;;;5056358;28;20440;-72
2022/12/31 01:56:46;;;;;;;0.10;0.10;;;12.80;99.90;;;;;;5043276;28;20518;-73
2022/12/31 01:59:16;;;;;;;0.10;0.10;;;12.90;99.90;;;;;;5053486;28;20919;-72
2022/12/31 02:01:45;;;;;;;0.10;0.10;;;13.00;99.90;;;;;;5060009;28;20420;-73
2022/12/31 02:04:14;;;;;;;0.13;0.13;;;13.20;99.90;;;;;;5046575;28;20935;-73
2022/12/31 02:06:46;;;;;;;0.20;0.20;;;13.40;99.90;;;;;;5049378;28;20468;-72
2022/12/31 02:09:12;;;;;;;0.22;0.22;;;13.40;99.90;;;;;;5050631;28;20423;-73
2022/12/31 02:11:39;;;;;;;0.20;0.20;;;13.40;99.90;;;;;;5061988;28;20425;-73
2022/12/31 02:14:13;;;;;;;0.30;0.30;;;13.50;99.90;;;;;;5057755;28;20427;-72
2022/12/31 02:17:03;;;;;;;0.20;0.20;;;13.40;99.90;;;;;;5060507;28;20435;-73
2022/12/31 02:20:01;;;;;;;0.30;0.30;;;13.30;99.90;;;;;;5046926;28;20427;-73
2022/12/31 02:23:04;;;;;;;0.20;0.20;;;13.20;99.90;;;;;;5042184;28;20519;-72
2022/12/31 02:25:58;;;;;;;0.20;0.20;;;13.20;99.90;;;;;;5052899;28;20438;-72
2022/12/31 02:29:06;;;;;;;0.20;0.20;;;13.10;99.90;;;;;;5054693;28;21014;-73
2022/12/31 02:31:59;;;;;;;0.10;0.10;;;13.20;99.90;;;;;;5059629;28;20459;-73
2022/12/31 02:34:45;;;;;;;0.20;0.20;;;13.20;99.90;;;;;;5001523;28;20441;-72
2022/12/31 02:37:14;;;;;;;0.40;0.40;;;13.20;99.90;;;;;;5004499;28;20507;-73
2022/12/31 02:39:43;;;;;;;0.20;0.20;;;13.20;99.90;;;;;;4998987;28;20455;-72
2022/12/31 02:42:11;;;;;;;0.10;0.10;;;13.30;99.90;;;;;;5003987;28;20527;-72
2022/12/31 02:44:40;;;;;;;0.28;0.28;;;13.30;99.90;;;;;;4984429;28;20504;-72
2022/12/31 02:47:06;;;;;;;1.60;0.30;;;13.40;99.90;;;;;;4987101;28;20489;-73
2022/12/31 02:49:57;;;;;;;3.72;0.38;;;13.30;99.90;;;;;;4993045;28;20451;-73
2022/12/31 02:52:49;;;;;;;0.10;0.10;;;13.40;99.90;;;;;;5006529;28;20496;-73
2022/12/31 02:55:25;;;;;;;0.10;0.10;;;13.40;99.90;;;;;;5001351;28;20507;-73
2022/12/31 02:58:09;;;;;;;0.10;0.10;;;13.40;99.90;;;;;;4995221;28;20495;-74
2022/12/31 03:03:30;;;;;;;0.17;0.17;;;13.30;99.90;;;;;;5005685;28;20426;-72
2022/12/31 03:06:00;;;;;;;0.10;0.10;;;13.30;99.90;;;;;;4988947;28;20456;-73
2022/12/31 03:08:30;;;;;;;0.10;0.10;;;13.40;99.90;;;;;;5007264;28;20504;-73
2022/12/31 03:10:57;;;;;;;0.17;0.17;;;13.30;99.90;;;;;;5000158;28;20927;-73
2022/12/31 03:13:24;;;;;;;0.20;0.20;;;13.30;99.90;;;;;;5056172;28;20441;-72
2022/12/31 03:15:51;;;;;;;0.20;0.20;;;13.30;99.90;;;;;;5056690;28;20444;-73
2022/12/31 03:22:26;;;;;;;0.63;0.30;;;13.40;99.90;;;;;;5067727;28;20436;-73
2022/12/31 03:26:42;;;;;;;0.20;0.20;;;13.50;99.90;;;;;;5062312;28;20432;-73
2022/12/31 03:29:09;;;;;;;0.20;0.20;;;13.50;99.90;;;;;;5067390;28;20439;-73
2022/12/31 03:31:36;;;;;;;0.20;0.20;;;13.50;99.90;;;;;;5065283;28;20818;-73
2022/12/31 03:34:02;;;;;;;0.13;0.13;;;13.50;99.90;;;;;;5054918;28;20463;-72
2022/12/31 03:36:29;;;;;;;0.30;0.30;;;13.60;99.90;;;;;;5056759;28;20910;-73
2022/12/31 03:38:56;;;;;;;0.10;0.10;;;13.60;99.90;;;;;;5058282;28;20437;-73
2022/12/31 03:41:24;;;;;;;0.10;0.10;;;13.50;99.90;;;;;;5054326;28;20430;-73
2022/12/31 03:43:51;;;;;;;0.10;0.10;;;13.50;99.90;;;;;;5046961;28;20935;-72
2022/12/31 03:46:17;;;;;;;0.20;0.20;;;13.40;99.90;;;;;;5060909;28;20441;-72
2022/12/31 03:48:44;;;;;;;0.20;0.20;;;13.50;99.90;;;;;;5060214;28;20471;-73
2022/12/31 03:51:15;;;;;;;0.20;0.20;;;13.50;99.90;;;;;;5063542;28;20426;-73
2022/12/31 03:53:42;;;;;;;0.20;0.20;;;13.50;99.90;;;;;;5060813;28;20514;-73
2022/12/31 03:56:08;;;;;;;0.20;0.20;;;13.50;99.90;;;;;;5059063;28;20446;-73
2022/12/31 03:58:35;;;;;;;0.10;0.10;;;13.40;99.90;;;;;;5061968;28;21168;-73
2022/12/31 04:01:02;;;;;;;0.10;0.10;;;13.50;99.90;;;;;;5066493;28;20458;-72
2022/12/31 04:03:29;;;;;;;0.93;0.35;;;13.50;99.90;;;;;;5050157;28;21028;-72
2022/12/31 04:05:57;;;;;;;0.20;0.20;;;13.50;99.90;;;;;;5062575;28;20440;-73
2022/12/31 04:08:24;;;;;;;0.30;0.30;;;13.50;99.90;;;;;;5065965;28;20921;-73
2022/12/31 04:10:51;;;;;;;0.60;0.20;;;13.50;99.90;;;;;;5064366;28;20430;-72
2022/12/31 04:13:18;;;;;;;5.70;0.20;;;13.50;99.90;;;;;;5045358;28;20930;-73
2022/12/31 04:15:47;;;;;;;0.20;0.20;;;13.60;99.90;;;;;;5061023;28;20522;-73
2022/12/31 04:18:14;;;;;;;0.10;0.10;;;13.60;99.90;;;;;;5062260;28;20481;-73
2022/12/31 04:20:41;;;;;;;0.30;0.30;;;13.70;99.90;;;;;;5060882;28;20512;-72
2022/12/31 04:23:07;;;;;;;0.10;0.10;;;13.80;99.90;;;;;;5049066;28;20437;-72
2022/12/31 04:25:34;;;;;;;0.30;0.30;;;13.90;99.90;;;;;;5056795;28;20430;-72
2022/12/31 04:28:01;;;;;;;0.20;0.20;;;13.80;99.90;;;;;;5057273;28;20959;-72
2022/12/31 04:30:28;;;;;;;0.20;0.20;;;13.90;99.90;;;;;;5066412;28;20430;-72
2022/12/31 04:32:54;;;;;;;0.30;0.30;;;14.00;99.90;;;;;;5052481;28;20488;-71
2022/12/31 04:35:21;;;;;;;0.10;0.10;;;14.00;99.90;;;;;;5063450;28;20453;-71
2022/12/31 04:37:51;;;;;;;0.30;0.30;;;14.00;99.90;;;;;;5061278;28;20437;-71
2022/12/31 04:40:18;;;;;;;0.30;0.20;;;14.00;99.90;;;;;;5067403;28;20482;-71
2022/12/31 04:42:50;;;;;;;0.22;0.22;;;13.90;99.90;;;;;;5066875;28;20423;-71
2022/12/31 04:45:19;;;;;;;0.20;0.20;;;14.00;99.90;;;;;;5069728;28;20426;-72
2022/12/31 04:47:48;;;;;;;0.20;0.20;;;14.00;99.90;;;;;;5066630;28;20468;-71
2022/12/31 04:50:14;;;;;;;0.20;0.20;;;14.00;99.90;;;;;;5066631;28;20456;-72
2022/12/31 04:52:41;;;;;;;0.30;0.30;;;14.00;99.90;;;;;;5048177;28;20905;-72
2022/12/31 04:55:09;;;;;;;0.28;0.22;;;14.10;99.90;;;;;;5056361;28;20437;-72
2022/12/31 04:57:35;;;;;;;0.20;0.20;;;14.10;99.90;;;;;;5063543;28;20431;-72
2022/12/31 05:00:05;;;;;;;0.15;0.15;;;14.10;99.90;;;;;;5062778;28;20458;-71
2022/12/31 05:02:31;;;;;;;0.20;0.20;;;14.00;99.90;;;;;;5070360;28;20427;-72
2022/12/31 05:04:58;;;;;;;0.30;0.30;;;14.00;99.90;;;;;;5070020;28;20463;-71
2022/12/31 05:07:25;;;;;;;0.20;0.20;;;14.00;99.90;;;;;;5060387;28;20433;-71
2022/12/31 05:09:52;;;;;;;0.23;0.23;;;14.00;99.90;;;;;;5061588;28;20995;-71
2022/12/31 05:12:19;;;;;;;0.40;0.40;;;14.10;99.90;;;;;;5060317;28;20480;-71
2022/12/31 05:14:45;;;;;;;0.20;0.20;;;14.10;99.90;;;;;;5053768;28;20438;-71
2022/12/31 05:17:15;;;;;;;0.10;0.10;;;14.20;99.90;;;;;;5045694;28;20474;-71
2022/12/31 05:19:44;;;;;;;0.25;0.25;;;14.20;99.90;;;;;;5060444;28;20459;-71
2022/12/31 05:22:30;;;;;;;0.20;0.20;;;14.20;99.90;;;;;;5058106;28;20516;-71
2022/12/31 05:24:57;;;;;;;0.28;0.28;;;14.30;99.90;;;;;;5060921;28;20421;-72
2022/12/31 05:27:25;;;;;;;0.37;0.37;;;14.20;99.90;;;;;;5066517;28;20525;-72
2022/12/31 05:29:51;;;;;;;0.20;0.20;;;14.20;99.90;;;;;;5063359;28;20905;-71
2022/12/31 05:32:18;;;;;;;0.30;0.30;;;14.30;99.90;;;;;;5054735;28;20433;-71
2022/12/31 05:34:45;;;;;;;0.50;0.30;;;14.30;99.90;;;;;;5045505;28;20443;-72
2022/12/31 05:37:12;;;;;;;0.30;0.30;;;14.30;99.90;;;;;;5045795;28;20429;-72
2022/12/31 05:39:44;;;;;;;0.10;0.10;;;14.30;99.90;;;;;;5067344;28;20802;-71
2022/12/31 05:42:10;;;;;;;0.30;0.30;;;14.20;99.90;;;;;;5054734;28;20436;-72
2022/12/31 05:44:40;;;;;;;0.30;0.30;;;14.20;99.90;;;;;;5043026;28;20436;-71
2022/12/31 05:47:07;;;;;;;0.20;0.20;;;14.20;99.90;;;;;;5055277;28;20429;-71
2022/12/31 05:49:34;;;;;;;0.22;0.22;;;14.20;99.90;;;;;;5060530;28;20437;-71
2022/12/31 05:52:00;;;;;;;0.20;0.20;;;14.10;99.90;;;;;;5047564;28;20441;-71
2022/12/31 05:54:27;;;;;;;0.25;0.20;;;14.00;99.90;;;;;;5058052;28;20435;-71
2022/12/31 05:56:54;;;;;;;0.20;0.20;;;13.90;99.90;;;;;;5062989;28;20466;-71
2022/12/31 05:59:20;;;;;;;0.23;0.23;;;13.90;99.90;;;;;;5062246;28;20432;-71
2022/12/31 06:01:47;;;;;;;0.20;0.20;;;13.90;99.90;;;;;;5063130;28;20440;-70
2022/12/31 06:04:14;;;;;;;0.20;0.20;;;14.00;99.90;;;;;;5062030;28;20423;-70
2022/12/31 06:06:41;;;;;;;0.20;0.20;;;14.10;99.90;;;;;;5068239;28;20894;-70
2022/12/31 06:09:10;;;;;;;0.20;0.20;;;14.10;99.90;;;;;;5049723;28;20438;-70
2022/12/31 06:11:37;;;;;;;0.20;0.20;;;14.00;99.90;;;;;;5060780;28;20440;-70
2022/12/31 06:14:04;;;;;;;0.20;0.20;;;14.10;99.90;;;;;;5044949;28;20429;-70
2022/12/31 06:16:31;;;;;;;0.30;0.30;;;14.10;99.90;;;;;;5049546;28;20942;-70
2022/12/31 06:18:57;;;;;;;0.20;0.20;;;14.10;99.90;;;;;;5052591;28;20433;-70
2022/12/31 06:21:24;;;;;;;0.32;0.32;;;14.10;99.90;;;;;;5054146;28;20437;-70
2022/12/31 06:23:51;;;;;;;0.20;0.20;;;14.00;99.90;;;;;;5053747;28;20808;-68
2022/12/31 06:26:17;;;;;;;0.35;0.35;;;14.00;99.90;;;;;;5051146;28;20429;-70
2022/12/31 06:28:44;;;;;;;0.20;0.20;;;13.90;99.90;;;;;;5063672;28;20917;-71
2022/12/31 06:31:13;;;;;;;0.10;0.10;;;13.90;99.90;;;;;;5067293;28;21208;-71
2022/12/31 06:33:40;;;;;;;0.30;0.30;;;13.90;99.90;;;;;;5056154;28;20435;-71
2022/12/31 06:36:11;;;;;;;0.10;0.10;;;14.00;99.90;;;;;;5060624;28;20427;-73
2022/12/31 06:38:41;;;;;;;1.05;0.20;;;14.00;99.90;;;;;;5052538;28;20852;-71
2022/12/31 06:41:11;;;;;;;1.60;0.40;;;14.10;99.90;;;;;;5058308;28;20432;-70
2022/12/31 06:43:41;;;;;;;0.70;0.20;;;14.10;99.90;;;;;;5053187;28;20437;-71
2022/12/31 06:46:10;;;;;;;0.20;0.20;;;14.10;99.90;;;;;;5063847;28;20789;-72
2022/12/31 06:48:41;;;;;;;0.30;0.30;;;14.10;99.90;;;;;;5056396;28;20858;-71
2022/12/31 06:51:11;;;;;;;0.20;0.20;;;14.00;99.90;;;;;;5055981;28;20431;-72
2022/12/31 06:53:47;;;;;;;0.10;0.10;;;14.00;99.90;;;;;;5058096;28;20444;-71
2022/12/31 06:56:16;;;;;;;0.20;0.20;;;14.10;99.90;;;;;;5060455;28;20518;-72
2022/12/31 06:58:46;;;;;;;0.10;0.10;;;14.00;99.90;;;;;;5061372;28;20424;-72
2022/12/31 07:01:13;;;;;;;0.28;0.28;;;14.00;99.90;;;;;;5052644;28;20915;-71
2022/12/31 07:04:08;;;;;;;0.20;0.20;;;14.00;99.90;;;;;;5045219;28;20471;-71
2022/12/31 07:07:07;;;;;;;0.30;0.30;;;14.10;99.90;;;;;;5058556;28;20435;-68
2022/12/31 07:09:59;;;;;;;0.10;0.10;;;14.10;99.90;;;;;;5062935;28;20431;-71
2022/12/31 07:13:02;;;;;;;0.25;0.20;;;14.20;99.90;;;;;;5050326;28;20461;-71
2022/12/31 07:15:48;;;;;;;0.17;0.17;;;14.20;99.90;;;;;;5051073;28;20900;-71
2022/12/31 07:18:30;;;;;;;0.20;0.20;;;14.20;99.90;;;;;;5062597;28;20850;-71
2022/12/31 07:20:57;;;;;;;0.20;0.20;;;14.20;99.90;;;;;;5039083;28;20441;-71
2022/12/31 07:23:25;;;;;;;0.17;0.17;;;14.10;99.90;;;;;;5049419;28;20441;-71
2022/12/31 07:26:03;;;;;;;0.20;0.20;;;14.10;99.90;;;;;;5055650;28;20423;-71
2022/12/31 07:28:44;;;;;;;0.20;0.20;;;14.10;99.90;;;;;;5048092;28;20430;-70
2022/12/31 07:31:45;;;;;;;0.20;0.20;;;14.20;99.90;;;;;;5038435;28;20433;-71
2022/12/31 07:34:33;;;;;;;0.30;0.20;;;14.20;99.90;;;;;;5062261;28;20432;-72
2022/12/31 07:37:26;;;;;;;1.05;1.05;;;14.30;99.90;;;;;;5059803;28;20455;-71
2022/12/31 07:40:27;;;;;;;0.40;0.30;;;14.30;99.90;;;;;;5050367;28;20431;-71
2022/12/31 07:43:09;;;;;;;0.35;0.35;;;14.40;99.90;;;;;;5050905;28;20512;-71
2022/12/31 07:45:53;;;;;;;0.20;0.20;;;14.30;99.90;;;;;;5055465;28;20424;-70
2022/12/31 07:48:27;;;;;;;0.20;0.20;;;14.40;99.90;;;;;;5060811;28;20442;-71
2022/12/31 07:50:56;;;;;;;0.50;0.50;;;14.40;99.90;;;;;;5055306;28;20429;-70
2022/12/31 07:53:25;;;;;;;0.30;0.30;;;14.30;99.90;;;;;;5062803;28;20431;-72
2022/12/31 07:56:04;;;;;;;0.30;0.30;;;14.20;99.90;;;;;;5054496;28;20526;-71
2022/12/31 07:58:52;;;;;;;0.32;0.32;;;14.10;99.90;;;;;;5054798;28;21060;-71
2022/12/31 08:01:45;;;;;;;0.30;0.30;;;14.10;99.90;;;;;;5054665;28;20830;-71
2022/12/31 08:04:20;;;;;;;0.50;0.50;;;14.10;99.90;;;;;;5054446;28;20433;-71
2022/12/31 08:07:25;;;;;;;1.60;0.30;;;14.10;99.90;;;;;;5058272;28;20811;-71
2022/12/31 08:10:12;;;;;;;0.40;0.20;;;14.10;99.90;;;;;;5036274;28;20487;-70
2022/12/31 08:12:48;;;;;;;0.30;0.30;;;14.20;99.90;;;;;;5050003;28;20439;-71
2022/12/31 08:15:19;;;;;;;2.15;0.60;;;14.20;99.90;;;;;;5058335;28;20514;-71
2022/12/31 08:17:52;;;;;;;0.20;0.20;;;14.20;99.90;;;;;;5062635;28;20431;-71
2022/12/31 08:20:19;;;;;;;0.30;0.30;;;14.30;99.90;;;;;;5058165;28;20442;-71
2022/12/31 08:23:13;;;;;;;1.30;0.50;;;14.30;99.90;;;;;;5045791;28;20914;-71
2022/12/31 08:25:51;;;;;;;1.30;0.30;;;14.30;99.90;;;;;;5050968;28;20423;-71
2022/12/31 08:28:50;;;;;;;0.40;0.40;;;14.30;99.90;;;;;;5047946;28;20472;-71
2022/12/31 08:31:47;;;;;;;0.80;0.30;;;14.30;99.90;;;;;;5053960;28;20928;-70
2022/12/31 08:34:28;;;;;;;0.50;0.20;;;14.30;99.90;;;;;;5046760;28;20583;-71
2022/12/31 08:37:09;;;;;;;0.30;0.30;;;14.40;99.90;;;;;;5060140;28;20868;-71
2022/12/31 08:40:18;;;;;;;0.32;0.32;;;14.30;99.90;;;;;;5056409;28;20435;-71
2022/12/31 08:43:12;;;;;;;2.40;0.65;;;14.30;99.90;;;;;;5056521;28;20435;-71
2022/12/31 08:45:47;;;;;;;0.20;0.20;;;14.30;99.90;;;;;;5056807;28;20517;-71
2022/12/31 08:48:37;;;;;;;0.20;0.20;;;14.30;99.90;;;;;;5062161;28;20522;-71
2022/12/31 08:51:04;;;;;;;0.30;0.30;;;14.30;99.90;;;;;;5051221;28;20510;-71
2022/12/31 08:53:31;;;;;;;0.20;0.20;;;14.40;99.90;;;;;;5055142;28;20429;-71
2022/12/31 08:56:11;;;;;;;0.20;0.20;;;14.40;99.90;;;;;;5064445;28;20512;-71
2022/12/31 08:59:05;;;;;;;0.70;0.70;;;14.40;99.90;;;;;;5047430;28;20923;-71
2022/12/31 09:01:49;;;;;;;0.30;0.30;;;14.40;99.90;;;;;;5056972;28;20441;-71
2022/12/31 09:04:39;;;;;;;0.40;0.40;;;14.40;99.90;;;;;;5061720;28;20468;-70
2022/12/31 09:07:08;;;;;;;0.32;0.32;;;14.40;99.90;;;;;;5053473;28;20435;-71
2022/12/31 09:09:46;;;;;;;0.30;0.30;;;14.40;99.90;;;;;;5054446;28;20442;-71
2022/12/31 09:12:30;;;;;;;0.30;0.30;;;14.50;99.90;;;;;;5054212;28;20524;-71
2022/12/31 09:14:56;;;;;;;1.10;0.50;;;14.50;99.90;;;;;;5048897;28;20514;-71
2022/12/31 09:17:39;;;;;;;0.22;0.22;;;14.50;99.90;;;;;;5045981;28;20931;-71
2022/12/31 09:20:22;;;;;;;0.50;0.40;;;14.50;99.90;;;;;;5059723;28;20500;-71
2022/12/31 09:22:49;;;;;;;0.30;0.30;;;14.60;99.90;;;;;;5060444;28;20526;-71
2022/12/31 09:25:20;;;;;;;0.30;0.30;;;14.50;99.90;;;;;;5064056;28;20525;-71
2022/12/31 09:27:58;;;;;;;0.47;0.47;;;14.60;99.90;;;;;;5036311;28;20425;-71
2022/12/31 09:30:29;;;;;;;0.40;0.40;;;14.70;99.90;;;;;;5051393;28;20536;-70
2022/12/31 09:33:15;;;;;;;0.45;0.45;;;14.70;99.90;;;;;;5051894;28;20425;-72
2022/12/31 09:35:51;;;;;;;0.40;0.40;;;14.80;99.90;;;;;;5055151;28;20431;-71
2022/12/31 09:38:47;;;;;;;0.10;0.10;;;14.80;99.90;;;;;;5065114;28;20427;-71
2022/12/31 09:41:25;;;;;;;0.20;0.20;;;14.70;99.90;;;;;;5050963;28;20436;-71
2022/12/31 09:44:04;;;;;;;0.28;0.28;;;14.80;99.90;;;;;;5063240;28;20438;-70
2022/12/31 09:47:15;;;;;;;0.30;0.30;;;14.80;99.90;;;;;;5066687;28;20412;-71
2022/12/31 09:50:06;;;;;;;0.20;0.20;;;14.90;99.90;;;;;;5033304;28;20425;-71
2022/12/31 09:52:59;;;;;;;0.43;0.43;;;14.90;99.90;;;;;;5055936;28;20429;-71
2022/12/31 09:55:35;;;;;;;0.30;0.30;;;15.00;99.90;;;;;;5038396;28;20445;-71
2022/12/31 09:58:16;;;;;;;0.50;0.50;;;15.10;99.90;;;;;;5051948;28;20444;-72
2022/12/31 10:01:02;;;;;;;0.40;0.40;;;15.20;99.90;;;;;;5057543;28;20529;-69
2022/12/31 10:03:36;;;;;;;0.20;0.20;;;15.20;99.90;;;;;;5050322;28;20429;-69
2022/12/31 10:06:38;;;;;;;0.43;0.43;;;15.10;99.90;;;;;;5051044;28;20429;-70
2022/12/31 10:09:20;;;;;;;0.30;0.30;;;15.10;99.90;;;;;;5050051;28;20429;-70
2022/12/31 10:12:17;;;;;;;0.30;0.30;;;15.20;99.90;;;;;;5034824;28;20433;-70
2022/12/31 10:14:50;;;;;;;0.50;0.43;;;15.40;99.90;;;;;;5063142;28;20429;-70
2022/12/31 10:17:47;;;;;;;0.47;0.47;;;15.50;99.90;;;;;;5042429;28;20433;-70
2022/12/31 10:20:38;;;;;;;0.40;0.40;;;15.70;99.90;;;;;;5054232;28;20506;-70
2022/12/31 10:23:37;;;;;;;0.20;0.20;;;15.80;99.90;;;;;;5044758;28;20797;-70
2022/12/31 10:26:26;;;;;;;0.30;0.30;;;15.90;99.90;;;;;;5049603;28;20463;-70
2022/12/31 10:29:31;;;;;;;0.40;0.40;;;16.00;99.90;;;;;;5050681;28;20431;-71
2022/12/31 10:32:03;;;;;;;4.30;0.60;;;15.90;99.90;;;;;;5060522;28;20430;-71
2022/12/31 10:34:54;;;;;;;0.20;0.20;;;15.80;99.90;;;;;;5051803;28;20435;-70
2022/12/31 10:37:28;;;;;;;0.30;0.30;;;15.80;99.90;;;;;;5056690;28;20429;-70
2022/12/31 10:40:36;;;;;;;0.40;0.40;;;15.80;99.90;;;;;;5053751;28;20518;-70
2022/12/31 10:43:25;;;;;;;1.90;0.20;;;16.20;99.90;;;;;;5043863;28;20431;-70
2022/12/31 10:46:17;;;;;;;0.70;0.30;;;16.60;99.90;;;;;;5040427;28;20437;-70
2022/12/31 10:49:07;;;;;;;0.90;0.45;;;17.00;99.90;;;;;;5052701;28;20543;-70
2022/12/31 10:51:37;;;;;;;0.50;0.50;;;17.40;99.90;;;;;;5053581;28;20474;-70
2022/12/31 10:54:42;;;;;;;0.30;0.30;;;17.70;99.90;;;;;;5039507;28;20457;-70
2022/12/31 10:57:30;;;;;;;1.50;0.30;;;17.70;99.90;;;;;;5055105;28;20467;-70
2022/12/31 11:00:17;;;;;;;1.17;0.35;;;17.90;99.90;;;;;;5060753;28;20438;-70
2022/12/31 11:02:53;;;;;;;0.25;0.25;;;18.20;99.90;;;;;;5058001;28;20437;-70
2022/12/31 11:05:35;;;;;;;0.20;0.20;;;18.00;99.90;;;;;;5051094;28;20437;-71
2022/12/31 11:08:22;;;;;;;0.20;0.20;;;17.90;99.90;;;;;;5054109;28;20439;-70
2022/12/31 11:11:01;;;;;;;0.30;0.30;;;18.00;99.90;;;;;;5059322;28;20433;-70
2022/12/31 11:13:40;;;;;;;0.30;0.30;;;18.00;99.90;;;;;;5053273;28;20431;-70
2022/12/31 11:16:37;;;;;;;0.27;0.27;;;17.90;99.90;;;;;;5052295;28;20981;-70
2022/12/31 11:19:29;;;;;;;0.30;0.30;;;18.00;99.90;;;;;;5054981;28;20516;-70
2022/12/31 11:22:33;;;;;;;0.20;0.20;;;17.80;99.90;;;;;;5043105;28;21161;-70
2022/12/31 11:25:21;;;;;;;0.40;0.30;;;17.40;99.90;;;;;;5058493;28;20442;-69
2022/12/31 11:27:48;;;;;;;0.20;0.20;;;17.40;99.90;;;;;;5053158;28;20776;-70
2022/12/31 11:30:40;;;;;;;0.20;0.20;;;17.30;99.90;;;;;;5041565;28;20431;-70
2022/12/31 11:33:35;;;;;;;0.15;0.15;;;17.30;99.90;;;;;;5052517;28;20473;-70
2022/12/31 11:36:26;;;;;;;0.20;0.20;;;17.40;99.90;;;;;;5060428;28;20429;-70
2022/12/31 11:39:20;;;;;;;0.50;0.40;;;17.20;99.90;;;;;;5065788;28;21000;-70
2022/12/31 11:42:06;;;;;;;0.40;0.40;;;17.10;99.90;;;;;;5056058;28;20912;-70
2022/12/31 11:44:48;;;;;;;0.40;0.40;;;17.20;99.90;;;;;;5057807;28;20431;-70
2022/12/31 11:47:24;;;;;;;0.30;0.30;;;17.20;99.90;;;;;;5055964;28;20433;-70
2022/12/31 11:50:28;;;;;;;0.70;0.43;;;17.40;99.90;;;;;;5065048;28;20429;-70
2022/12/31 11:53:23;;;;;;;0.30;0.30;;;17.40;99.90;;;;;;5058365;28;21333;-70
2022/12/31 11:55:57;;;;;;;1.50;0.35;;;17.40;99.90;;;;;;5058856;28;20441;-69
2022/12/31 11:58:27;;;;;;;0.20;0.20;;;17.50;99.90;;;;;;5064810;28;20431;-70
2022/12/31 12:01:10;;;;;;;0.20;0.20;;;17.30;99.90;;;;;;5059565;28;20469;-70
2022/12/31 12:03:42;;;;;;;0.23;0.23;;;17.10;99.90;;;;;;5059117;28;20908;-70
2022/12/31 12:06:23;;;;;;;0.60;0.30;;;17.10;99.90;;;;;;5061854;28;20489;-69
2022/12/31 12:08:50;;;;;;;0.20;0.20;;;17.00;99.90;;;;;;5058753;28;20791;-70
2022/12/31 12:11:22;;;;;;;0.40;0.40;;;17.00;99.90;;;;;;5060917;28;20436;-69
2022/12/31 12:13:49;;;;;;;0.40;0.30;;;16.90;99.90;;;;;;5059404;28;20426;-70
2022/12/31 12:16:18;;;;;;;0.35;0.30;;;16.90;99.90;;;;;;5061076;28;20444;-70
2022/12/31 12:18:59;;;;;;;0.20;0.20;;;17.00;99.90;;;;;;5058747;28;20430;-69
2022/12/31 12:21:28;;;;;;;0.50;0.50;;;17.00;99.90;;;;;;5059352;28;20533;-70
2022/12/31 12:23:57;;;;;;;0.20;0.20;;;17.10;99.90;;;;;;5034451;28;20440;-70
2022/12/31 12:26:44;;;;;;;0.38;0.38;;;17.10;99.90;;;;;;5056181;28;20994;-70
2022/12/31 12:29:14;;;;;;;0.30;0.30;;;17.20;99.90;;;;;;5047354;28;20442;-69
2022/12/31 12:31:41;;;;;;;0.30;0.30;;;17.40;99.90;;;;;;5060904;28;20459;-70
2022/12/31 12:34:36;;;;;;;0.20;0.20;;;17.50;99.90;;;;;;5062877;28;20466;-70
2022/12/31 12:37:04;;;;;;;0.40;0.40;;;17.50;99.90;;;;;;5051747;28;20992;-70
2022/12/31 12:39:33;;;;;;;0.20;0.20;;;17.60;99.90;;;;;;5050306;28;20429;-70
2022/12/31 12:42:15;;;;;;;0.40;0.40;;;17.60;99.90;;;;;;5055428;28;20527;-69
2022/12/31 12:44:41;;;;;;;0.30;0.30;;;17.40;99.90;;;;;;5050963;28;20433;-70
2022/12/31 12:47:15;;;;;;;0.10;0.10;;;17.30;99.90;;;;;;5043663;28;20504;-70
2022/12/31 12:49:46;;;;;;;0.20;0.20;;;17.10;99.90;;;;;;5067520;28;20429;-70
2022/12/31 12:52:37;;;;;;;0.20;0.20;;;16.90;99.90;;;;;;5058353;28;20443;-70
2022/12/31 12:55:42;;;;;;;0.40;0.20;;;16.80;99.90;;;;;;5053276;28;20433;-70
2022/12/31 12:58:27;;;;;;;0.30;0.30;;;16.80;99.90;;;;;;5061491;28;20427;-69
2022/12/31 13:01:18;;;;;;;1.50;0.30;;;16.90;99.90;;;;;;5043068;28;20465;-70
2022/12/31 13:04:04;;;;;;;1.60;0.60;;;17.20;99.90;;;;;;5061040;28;20914;-69
2022/12/31 13:07:22;;;;;;;2.08;0.32;;;17.30;99.90;;;;;;5064717;28;20426;-70
2022/12/31 13:10:26;;;;;;;1.60;0.30;;;17.30;99.90;;;;;;5060330;28;20439;-70
2022/12/31 13:13:01;;;;;;;0.70;0.30;;;17.30;99.90;;;;;;5060168;28;20791;-70
2022/12/31 13:16:03;;;;;;;3.25;0.43;;;17.10;99.90;;;;;;5045571;28;20771;-70
2022/12/31 13:18:55;;;;;;;1.23;0.30;;;16.90;99.90;;;;;;5058022;28;20427;-70
2022/12/31 13:21:44;;;;;;;0.20;0.20;;;16.80;99.90;;;;;;5053876;28;20471;-71
2022/12/31 13:24:28;;;;;;;0.80;0.20;;;16.70;99.90;;;;;;5055290;28;20461;-69
2022/12/31 13:27:33;;;;;;;0.30;0.30;;;16.70;99.90;;;;;;5058237;28;20512;-70
2022/12/31 13:30:03;;;;;;;0.20;0.20;;;16.70;99.90;;;;;;4978723;28;20466;-70
2022/12/31 13:32:49;;;;;;;0.20;0.20;;;16.70;99.90;;;;;;4972517;28;20438;-70
2022/12/31 13:35:37;;;;;;;0.30;0.30;;;16.60;99.90;;;;;;4977067;28;20477;-70
2022/12/31 13:38:14;;;;;;;0.20;0.20;;;16.50;99.90;;;;;;4978771;28;20468;-69
2022/12/31 13:41:05;;;;;;;0.30;0.20;;;16.50;99.90;;;;;;4979559;28;20438;-71
2022/12/31 13:43:42;;;;;;;0.27;0.27;;;16.50;99.90;;;;;;4973302;28;20593;-70